Time;durP1;ratioP1;P1;durP2;ratioP2;P2;SDS_P1;SDS_P2;PMS_P1;PMS_P2;Temp;Humidity;BMP_temperature;BMP_pressure;BME280_temperature;BME280_humidity;BME280_pressure;Samples;Min_cycle;Max_cycle;Signal;HPM_P1;HPM_P2
2021/01/22 00:00:08;;;;;;;1.88;1.33;;;6.40;93.40;;;;;;5127991;27;27394;-48
2021/01/22 00:02:52;;;;;;;1.25;0.88;;;6.40;93.40;;;;;;5127968;27;27336;-48
2021/01/22 00:05:36;;;;;;;1.92;1.10;;;6.40;93.40;;;;;;5127417;27;27332;-48
2021/01/22 00:08:21;;;;;;;2.20;1.17;;;6.40;93.60;;;;;;5127119;27;27416;-49
2021/01/22 00:11:06;;;;;;;2.47;1.20;;;6.40;93.60;;;;;;5127974;27;27359;-47
2021/01/22 00:13:50;;;;;;;2.45;1.65;;;6.40;93.70;;;;;;5127992;27;27324;-46
2021/01/22 00:16:35;;;;;;;2.25;1.48;;;6.40;94.10;;;;;;5127923;27;27405;-44
2021/01/22 00:19:19;;;;;;;1.80;1.20;;;6.40;93.80;;;;;;5127654;27;27347;-46
2021/01/22 00:22:04;;;;;;;4.72;1.33;;;6.40;93.90;;;;;;5127952;27;27337;-46
2021/01/22 00:24:48;;;;;;;1.88;1.10;;;6.40;93.80;;;;;;5124533;27;27436;-47
2021/01/22 00:27:33;;;;;;;1.67;1.05;;;6.30;93.60;;;;;;5127931;27;27512;-47
2021/01/22 00:30:17;;;;;;;1.55;1.02;;;6.30;93.60;;;;;;5127729;27;27411;-48
2021/01/22 00:33:02;;;;;;;1.60;1.20;;;6.30;93.70;;;;;;5127018;27;27429;-47
2021/01/22 00:35:46;;;;;;;3.30;0.90;;;6.20;93.70;;;;;;5127627;27;27419;-44
2021/01/22 00:38:31;;;;;;;1.30;1.00;;;6.20;93.70;;;;;;5127565;27;27495;-47
2021/01/22 00:41:16;;;;;;;1.63;1.20;;;6.10;93.70;;;;;;5127493;27;27484;-47
2021/01/22 00:44:00;;;;;;;2.28;1.48;;;6.10;93.70;;;;;;5127578;27;27472;-47
2021/01/22 00:46:45;;;;;;;1.95;1.42;;;6.10;93.80;;;;;;5127491;27;27403;-51
2021/01/22 00:49:29;;;;;;;3.45;1.60;;;6.10;94.00;;;;;;5124105;27;27406;-48
2021/01/22 00:52:14;;;;;;;4.32;1.38;;;6.00;93.90;;;;;;5126848;27;27493;-47
2021/01/22 00:54:59;;;;;;;2.88;1.20;;;6.00;93.90;;;;;;5127159;27;27481;-48
2021/01/22 00:58:02;;;;;;;1.70;1.20;;;6.00;93.90;;;;;;5126783;27;26885;-44
2021/01/22 01:00:51;;;;;;;1.23;1.00;;;5.90;93.90;;;;;;5125348;27;27478;-48
2021/01/22 01:03:45;;;;;;;1.98;1.60;;;5.90;93.90;;;;;;5123073;27;27422;-47
2021/01/22 01:06:29;;;;;;;0.80;0.77;;;5.90;93.90;;;;;;5123208;27;27436;-47
2021/01/22 01:09:14;;;;;;;1.88;0.85;;;5.90;93.90;;;;;;5123477;27;27399;-47
2021/01/22 01:12:13;;;;;;;2.13;1.25;;;5.80;93.90;;;;;;5123230;27;27386;-48
2021/01/22 01:15:20;;;;;;;1.95;0.93;;;5.80;94.00;;;;;;5123419;27;27530;-47
2021/01/22 01:18:04;;;;;;;1.25;0.80;;;5.80;94.10;;;;;;5126738;27;27355;-47
2021/01/22 01:20:48;;;;;;;1.77;1.00;;;5.80;94.10;;;;;;5126965;27;27324;-47
2021/01/22 01:23:33;;;;;;;1.45;0.95;;;5.80;94.10;;;;;;5126803;27;27429;-47
2021/01/22 01:26:17;;;;;;;1.73;0.98;;;5.80;94.30;;;;;;5126739;27;27418;-47
2021/01/22 01:29:02;;;;;;;0.60;0.60;;;5.90;94.30;;;;;;5126285;27;27472;-47
2021/01/22 01:31:46;;;;;;;1.02;0.80;;;5.90;94.40;;;;;;5123052;27;27380;-48
2021/01/22 01:34:30;;;;;;;3.05;0.98;;;5.90;94.50;;;;;;5126679;27;27873;-47
2021/01/22 01:37:15;;;;;;;1.15;0.68;;;5.90;94.50;;;;;;5126416;27;27502;-47
2021/01/22 01:40:00;;;;;;;0.70;0.63;;;5.90;94.40;;;;;;5126709;27;27423;-46
2021/01/22 01:42:44;;;;;;;1.63;0.68;;;6.00;94.50;;;;;;5126296;27;27578;-46
2021/01/22 01:45:29;;;;;;;0.70;0.70;;;6.00;94.50;;;;;;5126561;27;27469;-48
2021/01/22 01:48:14;;;;;;;1.70;1.02;;;6.00;94.40;;;;;;5126459;27;27474;-45
2021/01/22 01:50:58;;;;;;;1.15;0.75;;;6.00;94.30;;;;;;5126477;27;27500;-47
2021/01/22 01:53:43;;;;;;;1.15;0.70;;;6.00;94.30;;;;;;5111143;27;27477;-46
2021/01/22 01:56:27;;;;;;;1.55;0.82;;;6.00;94.20;;;;;;5125581;27;27384;-44
2021/01/22 01:59:13;;;;;;;1.00;0.95;;;6.00;94.10;;;;;;5126290;27;27350;-46
2021/01/22 02:01:58;;;;;;;2.15;0.77;;;6.00;94.20;;;;;;5125599;27;27356;-48
2021/01/22 02:04:42;;;;;;;1.75;1.00;;;6.00;94.20;;;;;;5110715;27;27421;-47
2021/01/22 02:07:26;;;;;;;1.48;0.90;;;6.00;94.20;;;;;;5123846;27;27964;-46
2021/01/22 02:10:11;;;;;;;3.33;0.80;;;6.00;94.20;;;;;;5122803;27;27381;-47
2021/01/22 02:12:55;;;;;;;0.75;0.60;;;6.00;94.30;;;;;;5125587;27;27440;-46
2021/01/22 02:15:40;;;;;;;2.38;0.95;;;6.00;94.20;;;;;;5110824;27;27380;-46
2021/01/22 02:18:25;;;;;;;1.63;0.70;;;6.00;94.20;;;;;;5124900;27;27398;-48
2021/01/22 02:21:24;;;;;;;4.88;0.98;;;6.00;94.20;;;;;;5125888;27;27418;-48
2021/01/22 02:24:14;;;;;;;3.08;0.80;;;6.00;94.10;;;;;;5125021;27;27409;-46
2021/01/22 02:27:00;;;;;;;0.45;0.45;;;6.00;94.10;;;;;;5125597;27;27346;-47
2021/01/22 02:29:45;;;;;;;1.42;0.90;;;6.00;94.00;;;;;;5124730;27;27397;-47
2021/01/22 02:32:29;;;;;;;3.65;0.90;;;6.00;93.90;;;;;;5110066;27;27340;-47
2021/01/22 02:35:17;;;;;;;1.45;0.80;;;6.00;93.90;;;;;;5121468;27;27453;-46
2021/01/22 02:38:02;;;;;;;2.70;0.70;;;6.00;93.90;;;;;;5125451;27;27354;-47
2021/01/22 02:40:47;;;;;;;1.65;0.93;;;6.00;93.90;;;;;;5125579;27;27368;-46
2021/01/22 02:43:31;;;;;;;1.13;0.75;;;5.90;93.90;;;;;;5124866;27;27348;-47
2021/01/22 02:46:16;;;;;;;3.00;0.98;;;6.00;93.90;;;;;;5110378;27;27337;-46
2021/01/22 02:49:00;;;;;;;1.08;0.88;;;5.90;93.90;;;;;;5125550;27;27332;-46
2021/01/22 02:51:46;;;;;;;2.55;0.80;;;5.90;93.90;;;;;;5124810;27;27352;-48
2021/01/22 02:54:31;;;;;;;1.38;0.80;;;5.90;93.90;;;;;;5125420;27;27302;-47
2021/01/22 02:57:38;;;;;;;1.65;0.70;;;5.90;93.90;;;;;;5125110;27;27386;-47
2021/01/22 03:00:33;;;;;;;1.55;0.75;;;5.90;93.90;;;;;;5125077;27;27334;-47
2021/01/22 03:03:22;;;;;;;2.67;0.90;;;5.80;93.90;;;;;;5124554;27;27328;-48
2021/01/22 03:06:07;;;;;;;4.50;0.85;;;5.80;93.90;;;;;;5124491;27;27434;-47
2021/01/22 03:08:54;;;;;;;2.03;1.00;;;5.80;93.90;;;;;;5124588;27;27407;-46
2021/01/22 03:11:38;;;;;;;1.67;0.93;;;5.80;94.00;;;;;;5124420;27;27374;-46
2021/01/22 03:14:22;;;;;;;2.50;1.10;;;5.80;93.90;;;;;;5124407;27;27468;-48
2021/01/22 03:17:08;;;;;;;2.97;0.80;;;5.70;93.90;;;;;;5109381;27;27509;-46
2021/01/22 03:19:53;;;;;;;1.10;0.80;;;5.70;93.90;;;;;;5127870;27;27403;-46
2021/01/22 03:22:37;;;;;;;1.45;0.60;;;5.70;94.00;;;;;;5128811;27;27469;-46
2021/01/22 03:25:22;;;;;;;4.05;0.80;;;5.70;94.10;;;;;;5128828;27;27480;-47
2021/01/22 03:28:07;;;;;;;1.38;0.70;;;5.70;94.00;;;;;;5124385;27;27386;-47
2021/01/22 03:30:52;;;;;;;2.83;0.80;;;5.60;94.00;;;;;;5128735;27;27457;-46
2021/01/22 03:33:37;;;;;;;5.60;1.15;;;5.70;94.10;;;;;;5125076;27;27448;-47
2021/01/22 03:36:21;;;;;;;3.50;0.90;;;5.70;94.20;;;;;;5128280;27;27410;-46
2021/01/22 03:39:05;;;;;;;2.83;0.80;;;5.70;94.20;;;;;;5128515;27;27410;-47
2021/01/22 03:41:50;;;;;;;1.60;1.10;;;5.70;94.30;;;;;;5128315;27;27477;-48
2021/01/22 03:44:36;;;;;;;3.97;1.08;;;5.70;94.20;;;;;;5126131;27;27414;-46
2021/01/22 03:47:21;;;;;;;3.05;1.00;;;5.80;94.20;;;;;;5128127;27;27473;-48
2021/01/22 03:50:06;;;;;;;2.00;0.90;;;5.80;94.20;;;;;;5128046;27;27507;-47
2021/01/22 03:52:50;;;;;;;3.90;1.13;;;5.80;94.10;;;;;;5124572;27;27388;-46
2021/01/22 03:55:35;;;;;;;3.92;1.25;;;5.80;94.00;;;;;;5128332;27;27433;-48
2021/01/22 03:58:19;;;;;;;1.85;1.00;;;5.80;93.90;;;;;;5128240;27;27418;-44
2021/01/22 04:01:04;;;;;;;3.30;1.38;;;5.80;93.90;;;;;;5128222;27;27463;-47
2021/01/22 04:03:49;;;;;;;3.88;1.30;;;5.80;93.80;;;;;;5128218;27;27358;-46
2021/01/22 04:06:33;;;;;;;1.58;1.02;;;5.80;93.70;;;;;;5127185;27;27466;-47
2021/01/22 04:09:18;;;;;;;6.68;1.08;;;5.90;93.50;;;;;;5128139;27;27373;-47
2021/01/22 04:12:02;;;;;;;2.60;1.02;;;5.80;93.40;;;;;;5124295;27;27320;-47
2021/01/22 04:14:46;;;;;;;2.15;0.95;;;5.90;93.40;;;;;;5127757;27;27339;-47
2021/01/22 04:17:31;;;;;;;4.90;1.10;;;5.80;93.40;;;;;;5127706;27;27327;-46
2021/01/22 04:20:21;;;;;;;3.13;1.13;;;5.80;93.40;;;;;;5124623;27;27971;-48
2021/01/22 04:23:05;;;;;;;3.17;1.13;;;5.80;93.40;;;;;;5127851;27;27545;-48
2021/01/22 04:25:50;;;;;;;3.95;1.25;;;5.80;93.40;;;;;;5127614;27;27406;-47
2021/01/22 04:28:34;;;;;;;1.33;0.70;;;5.80;93.30;;;;;;5127247;27;27391;-48
2021/01/22 04:31:19;;;;;;;3.42;1.65;;;5.90;93.20;;;;;;5123621;27;27960;-47
2021/01/22 04:34:03;;;;;;;1.73;0.98;;;5.90;93.20;;;;;;5127394;27;27426;-48
2021/01/22 04:36:48;;;;;;;2.53;0.90;;;5.90;93.20;;;;;;5127292;27;27650;-48
2021/01/22 04:39:35;;;;;;;4.80;1.50;;;5.90;93.20;;;;;;5127816;27;27573;-47
2021/01/22 04:42:19;;;;;;;5.65;1.15;;;5.90;93.20;;;;;;5127507;27;27589;-47
2021/01/22 04:45:06;;;;;;;2.30;0.88;;;6.00;93.20;;;;;;5126756;27;27505;-46
2021/01/22 04:47:51;;;;;;;2.50;0.98;;;6.00;93.20;;;;;;5127523;27;27402;-45
2021/01/22 04:50:35;;;;;;;3.55;0.90;;;6.00;93.20;;;;;;5127462;27;27460;-46
2021/01/22 04:53:20;;;;;;;2.08;0.85;;;6.00;93.10;;;;;;5126295;27;28040;-51
2021/01/22 04:56:05;;;;;;;1.73;0.88;;;6.10;93.10;;;;;;5108789;27;27423;-49
2021/01/22 04:58:52;;;;;;;3.88;1.00;;;6.10;93.10;;;;;;5126641;27;27449;-47
2021/01/22 05:01:37;;;;;;;1.90;0.90;;;6.10;93.00;;;;;;5127325;27;27460;-46
2021/01/22 05:04:23;;;;;;;1.85;0.85;;;6.10;93.00;;;;;;5111326;27;27572;-51
2021/01/22 05:07:08;;;;;;;4.75;1.10;;;6.10;93.00;;;;;;5125646;27;27557;-47
2021/01/22 05:09:54;;;;;;;3.65;1.08;;;6.10;93.00;;;;;;5126989;27;27472;-50
2021/01/22 05:12:40;;;;;;;1.60;0.77;;;6.10;93.00;;;;;;5126608;27;27319;-48
2021/01/22 05:15:25;;;;;;;1.13;0.73;;;6.10;93.10;;;;;;5127022;27;27374;-50
2021/01/22 05:18:10;;;;;;;0.77;0.63;;;6.10;93.10;;;;;;5126947;27;27634;-51
2021/01/22 05:20:54;;;;;;;1.40;0.80;;;6.10;93.10;;;;;;5122993;27;27479;-47
2021/01/22 05:23:39;;;;;;;1.40;0.50;;;6.20;93.10;;;;;;5126961;27;27335;-50
2021/01/22 05:26:24;;;;;;;1.52;0.70;;;6.10;93.00;;;;;;5126867;27;27360;-51
2021/01/22 05:29:15;;;;;;;0.88;0.70;;;6.20;93.00;;;;;;5125794;27;27366;-48
2021/01/22 05:32:00;;;;;;;1.13;0.98;;;6.20;93.00;;;;;;5126347;27;27472;-49
2021/01/22 05:34:48;;;;;;;0.73;0.60;;;6.20;93.00;;;;;;5126482;27;27401;-48
2021/01/22 05:37:32;;;;;;;3.80;0.90;;;6.10;93.00;;;;;;5126657;27;27410;-51
2021/01/22 05:40:17;;;;;;;2.30;1.00;;;6.10;93.00;;;;;;5125799;27;27456;-50
2021/01/22 05:43:01;;;;;;;2.97;0.80;;;6.10;93.10;;;;;;5126649;27;27444;-50
2021/01/22 05:45:46;;;;;;;2.60;0.80;;;6.20;93.10;;;;;;5126538;27;27451;-49
2021/01/22 05:48:31;;;;;;;1.75;0.90;;;6.20;93.00;;;;;;5126507;27;27951;-44
2021/01/22 05:51:15;;;;;;;2.78;0.95;;;6.20;92.90;;;;;;5126149;27;27498;-49
2021/01/22 05:54:00;;;;;;;3.25;0.80;;;6.20;92.90;;;;;;5125779;27;27459;-48
2021/01/22 05:57:11;;;;;;;1.10;0.63;;;6.20;92.90;;;;;;5125622;27;27426;-47
2021/01/22 06:00:14;;;;;;;2.30;0.60;;;6.20;92.90;;;;;;5125993;27;27385;-47
2021/01/22 06:02:59;;;;;;;0.55;0.50;;;6.20;92.90;;;;;;5126235;27;27378;-48
2021/01/22 06:05:51;;;;;;;0.85;0.60;;;6.10;92.90;;;;;;5125737;27;27480;-48
2021/01/22 06:09:03;;;;;;;1.23;0.90;;;6.10;92.90;;;;;;5125359;27;27447;-46
2021/01/22 06:11:47;;;;;;;0.80;0.63;;;6.10;92.90;;;;;;5122450;27;27379;-46
2021/01/22 06:14:34;;;;;;;1.42;0.75;;;6.10;92.90;;;;;;5125745;27;27330;-46
2021/01/22 06:17:19;;;;;;;0.98;0.70;;;6.00;92.90;;;;;;5125832;27;27420;-49
2021/01/22 06:20:05;;;;;;;3.35;1.10;;;6.00;92.90;;;;;;5107361;27;27698;-47
2021/01/22 06:23:13;;;;;;;2.20;1.00;;;6.00;93.00;;;;;;5125215;27;27480;-47
2021/01/22 06:25:58;;;;;;;1.85;0.88;;;6.00;93.30;;;;;;5125165;27;27411;-47
2021/01/22 06:28:43;;;;;;;2.35;0.80;;;5.90;93.00;;;;;;5122599;27;27307;-47
2021/01/22 06:31:28;;;;;;;1.50;0.90;;;5.90;93.00;;;;;;5125467;27;27405;-45
2021/01/22 06:34:13;;;;;;;2.95;1.35;;;5.90;93.10;;;;;;5125718;27;27441;-49
2021/01/22 06:36:57;;;;;;;4.40;0.90;;;5.90;93.10;;;;;;5110201;27;27434;-44
2021/01/22 06:39:42;;;;;;;1.63;0.80;;;5.90;93.10;;;;;;5125779;27;27419;-47
2021/01/22 06:42:27;;;;;;;2.72;0.95;;;5.80;93.20;;;;;;5122113;27;27452;-45
2021/01/22 06:45:11;;;;;;;1.60;0.90;;;5.80;93.20;;;;;;5125561;27;27847;-44
2021/01/22 06:47:57;;;;;;;1.95;1.02;;;5.80;93.20;;;;;;5121949;27;27422;-46
2021/01/22 06:50:42;;;;;;;2.17;1.10;;;5.80;93.30;;;;;;5125230;27;27476;-49
2021/01/22 06:53:26;;;;;;;3.25;1.40;;;5.80;93.30;;;;;;5124923;27;27410;-43
2021/01/22 06:56:11;;;;;;;2.90;1.60;;;5.80;93.40;;;;;;5122060;27;27402;-46
2021/01/22 06:58:55;;;;;;;3.22;1.73;;;5.80;93.40;;;;;;5125399;27;27405;-45
2021/01/22 07:01:40;;;;;;;3.33;1.30;;;5.80;93.40;;;;;;5125382;27;27402;-47
2021/01/22 07:04:41;;;;;;;2.75;1.13;;;5.80;93.40;;;;;;5125275;27;27403;-46
2021/01/22 07:07:47;;;;;;;3.25;1.23;;;5.90;93.50;;;;;;5124390;27;27327;-49
2021/01/22 07:11:01;;;;;;;1.25;0.88;;;5.80;93.40;;;;;;5125019;27;27392;-50
2021/01/22 07:13:46;;;;;;;1.77;1.00;;;5.90;93.30;;;;;;5125364;27;27351;-48
2021/01/22 07:16:31;;;;;;;2.10;1.35;;;5.90;93.20;;;;;;5124981;27;27364;-49
2021/01/22 07:19:16;;;;;;;4.53;1.63;;;5.90;93.20;;;;;;5109732;27;27398;-47
2021/01/22 07:22:01;;;;;;;5.50;2.10;;;6.00;93.20;;;;;;5123882;27;27362;-50
2021/01/22 07:24:47;;;;;;;3.70;1.40;;;6.00;93.00;;;;;;5124140;27;27375;-51
2021/01/22 07:27:43;;;;;;;2.47;1.50;;;6.10;93.00;;;;;;5120801;27;27377;-47
2021/01/22 07:30:37;;;;;;;2.60;1.40;;;6.10;92.90;;;;;;5124987;27;27843;-49
2021/01/22 07:33:34;;;;;;;5.65;1.23;;;6.20;92.80;;;;;;5124691;27;27393;-47
2021/01/22 07:36:20;;;;;;;1.77;1.10;;;6.30;92.60;;;;;;5120671;27;26928;-49
2021/01/22 07:39:05;;;;;;;4.43;1.17;;;6.40;92.50;;;;;;5124960;27;27378;-48
2021/01/22 07:41:50;;;;;;;4.70;1.30;;;6.40;92.30;;;;;;5123827;27;27479;-48
2021/01/22 07:44:35;;;;;;;2.20;1.10;;;6.50;92.20;;;;;;5123825;27;27490;-46
2021/01/22 07:47:28;;;;;;;2.35;1.02;;;6.60;92.10;;;;;;5124852;27;27456;-50
2021/01/22 07:50:14;;;;;;;6.28;1.30;;;6.60;91.90;;;;;;5124372;27;27406;-47
2021/01/22 07:52:58;;;;;;;1.73;1.20;;;6.70;91.80;;;;;;5124545;27;27441;-47
2021/01/22 07:55:43;;;;;;;2.08;1.45;;;6.70;91.80;;;;;;5123696;27;27340;-50
2021/01/22 07:58:27;;;;;;;2.60;1.52;;;6.80;91.70;;;;;;5109543;27;27337;-47
2021/01/22 08:01:23;;;;;;;3.85;1.75;;;6.90;91.60;;;;;;5124444;27;27316;-47
2021/01/22 08:04:08;;;;;;;1.65;1.20;;;7.00;91.50;;;;;;5125238;27;27339;-49
2021/01/22 08:06:52;;;;;;;2.65;1.20;;;7.00;91.30;;;;;;5127706;27;27382;-46
2021/01/22 08:09:37;;;;;;;3.50;1.35;;;7.10;91.30;;;;;;5128126;27;27315;-47
2021/01/22 08:12:21;;;;;;;2.30;1.20;;;7.10;91.30;;;;;;5127902;27;27389;-47
2021/01/22 08:15:18;;;;;;;3.60;1.50;;;7.10;91.20;;;;;;5127959;27;27377;-50
2021/01/22 08:18:04;;;;;;;2.95;1.30;;;7.20;91.00;;;;;;5127251;27;27630;-47
2021/01/22 08:20:50;;;;;;;2.53;0.90;;;7.40;90.80;;;;;;5127995;27;27472;-51
2021/01/22 08:23:34;;;;;;;1.10;0.88;;;7.70;90.30;;;;;;5127623;27;27521;-47
2021/01/22 08:26:19;;;;;;;1.92;1.25;;;7.90;89.90;;;;;;5126988;27;27475;-47
2021/01/22 08:29:04;;;;;;;1.58;0.88;;;8.20;88.80;;;;;;5126771;27;27351;-51
2021/01/22 08:31:48;;;;;;;1.42;1.00;;;8.40;88.10;;;;;;5124166;27;27339;-48
2021/01/22 08:34:33;;;;;;;2.72;1.02;;;8.60;87.10;;;;;;5126731;27;27382;-50
2021/01/22 08:37:18;;;;;;;1.73;1.25;;;8.90;86.30;;;;;;5126454;27;27351;-47
2021/01/22 08:40:02;;;;;;;3.22;1.10;;;9.10;85.90;;;;;;5112300;27;27370;-47
2021/01/22 08:43:01;;;;;;;1.52;1.20;;;9.30;85.00;;;;;;5127548;27;27401;-48
2021/01/22 08:46:10;;;;;;;1.27;0.80;;;9.60;84.30;;;;;;5126914;27;27414;-46
2021/01/22 08:48:55;;;;;;;1.55;0.70;;;9.90;83.00;;;;;;5127361;27;27393;-44
2021/01/22 08:51:40;;;;;;;1.40;0.75;;;10.10;81.50;;;;;;5126968;27;27332;-48
2021/01/22 08:54:37;;;;;;;4.00;0.90;;;10.30;80.40;;;;;;5126320;27;27386;-46
2021/01/22 08:57:22;;;;;;;1.23;0.80;;;10.60;80.10;;;;;;5127314;27;27300;-49
2021/01/22 09:00:07;;;;;;;2.92;0.80;;;10.70;79.10;;;;;;5126961;27;27453;-48
2021/01/22 09:02:51;;;;;;;2.10;0.80;;;10.80;78.80;;;;;;5127004;27;27370;-49
2021/01/22 09:05:51;;;;;;;2.75;0.70;;;10.90;78.80;;;;;;5127276;27;27416;-44
2021/01/22 09:08:35;;;;;;;0.70;0.70;;;10.90;78.40;;;;;;5126079;27;27415;-47
2021/01/22 09:11:36;;;;;;;1.48;0.90;;;10.90;78.00;;;;;;5111568;27;27429;-47
2021/01/22 09:14:21;;;;;;;1.50;0.65;;;10.90;77.80;;;;;;5127043;27;27399;-47
2021/01/22 09:17:05;;;;;;;1.60;0.70;;;10.90;77.70;;;;;;5127058;27;27346;-48
2021/01/22 09:20:01;;;;;;;1.20;1.02;;;10.80;78.80;;;;;;5126966;27;27376;-49
2021/01/22 09:22:48;;;;;;;1.83;0.60;;;10.80;78.20;;;;;;5123471;27;27421;-50
2021/01/22 09:25:33;;;;;;;1.42;0.77;;;10.80;77.80;;;;;;5126820;27;27373;-51
2021/01/22 09:28:17;;;;;;;1.27;0.82;;;10.80;78.00;;;;;;5126833;27;27379;-46
2021/01/22 09:31:02;;;;;;;0.98;0.77;;;10.80;78.30;;;;;;5126533;27;27327;-47
2021/01/22 09:33:46;;;;;;;2.00;1.00;;;10.90;78.00;;;;;;5126097;27;27314;-46
2021/01/22 09:36:31;;;;;;;1.95;0.90;;;11.10;77.00;;;;;;5122485;27;27400;-47
2021/01/22 09:39:15;;;;;;;1.50;0.90;;;11.20;77.30;;;;;;5126584;27;27327;-46
2021/01/22 09:41:59;;;;;;;2.72;1.02;;;11.20;76.40;;;;;;5122434;27;27434;-46
2021/01/22 09:44:44;;;;;;;3.08;0.90;;;11.20;76.10;;;;;;5126548;27;27867;-46
2021/01/22 09:47:28;;;;;;;1.25;0.80;;;11.10;76.30;;;;;;5126435;27;27420;-46
2021/01/22 09:50:15;;;;;;;2.20;1.02;;;11.00;76.80;;;;;;5126112;27;27456;-46
2021/01/22 09:53:00;;;;;;;1.38;0.95;;;10.90;77.00;;;;;;5125746;27;27370;-45
2021/01/22 09:55:44;;;;;;;1.65;0.63;;;10.90;77.70;;;;;;5125956;27;27319;-47
2021/01/22 09:58:29;;;;;;;2.00;0.90;;;10.90;78.30;;;;;;5126286;27;27468;-45
2021/01/22 10:01:13;;;;;;;1.25;1.15;;;10.90;77.80;;;;;;5126000;27;27480;-49
2021/01/22 10:03:57;;;;;;;1.73;0.85;;;11.10;77.70;;;;;;5125869;27;27455;-46
2021/01/22 10:06:42;;;;;;;1.67;0.77;;;11.40;76.90;;;;;;5122354;27;27411;-43
2021/01/22 10:09:27;;;;;;;1.02;0.70;;;11.60;76.40;;;;;;5125618;27;27473;-46
2021/01/22 10:12:13;;;;;;;2.65;0.98;;;11.80;75.90;;;;;;5126060;27;27463;-48
2021/01/22 10:14:58;;;;;;;1.52;0.93;;;12.00;75.40;;;;;;5125197;27;27488;-47
2021/01/22 10:17:43;;;;;;;3.88;0.85;;;12.20;75.10;;;;;;5125693;27;27406;-46
2021/01/22 10:20:27;;;;;;;2.42;0.80;;;12.40;74.60;;;;;;5121573;27;27449;-47
2021/01/22 10:23:12;;;;;;;1.00;0.75;;;12.60;74.30;;;;;;5125723;27;27413;-45
2021/01/22 10:25:56;;;;;;;1.42;1.00;;;12.80;73.80;;;;;;5121608;27;27362;-47
2021/01/22 10:28:41;;;;;;;1.13;0.73;;;13.10;73.20;;;;;;5125541;27;27448;-46
2021/01/22 10:31:26;;;;;;;1.73;0.90;;;13.50;72.20;;;;;;5125562;27;27499;-45
2021/01/22 10:34:10;;;;;;;1.35;0.80;;;14.00;71.30;;;;;;5125579;27;27410;-45
2021/01/22 10:36:55;;;;;;;2.00;0.77;;;14.40;70.30;;;;;;5123906;27;27422;-49
2021/01/22 10:39:39;;;;;;;1.48;0.90;;;14.70;68.80;;;;;;5125234;27;27471;-46
2021/01/22 10:42:25;;;;;;;1.70;0.90;;;15.00;68.30;;;;;;5125251;27;27399;-45
2021/01/22 10:45:11;;;;;;;4.20;1.30;;;15.20;66.80;;;;;;5125612;27;27452;-47
2021/01/22 10:47:55;;;;;;;0.80;0.80;;;15.50;66.00;;;;;;5125275;27;27481;-49
2021/01/22 10:50:40;;;;;;;1.08;0.77;;;15.80;65.80;;;;;;5125471;27;27488;-45
2021/01/22 10:53:24;;;;;;;2.92;1.15;;;16.10;64.90;;;;;;5125138;27;27564;-46
2021/01/22 10:56:09;;;;;;;2.65;0.80;;;16.50;64.40;;;;;;5125575;27;27451;-48
2021/01/22 10:58:53;;;;;;;1.15;0.75;;;16.70;64.10;;;;;;5125182;27;27392;-49
2021/01/22 11:01:38;;;;;;;1.20;0.70;;;17.10;62.90;;;;;;5121265;27;28002;-49
2021/01/22 11:04:22;;;;;;;1.90;0.82;;;17.20;62.60;;;;;;5124698;27;27331;-49
2021/01/22 11:07:07;;;;;;;1.00;0.90;;;17.20;62.80;;;;;;5124920;27;27405;-49
2021/01/22 11:09:52;;;;;;;1.77;0.77;;;17.30;62.50;;;;;;5124999;27;27334;-44
2021/01/22 11:12:36;;;;;;;0.77;0.77;;;17.60;62.40;;;;;;5124714;27;27429;-48
2021/01/22 11:15:21;;;;;;;2.33;0.93;;;17.80;62.10;;;;;;5125226;27;27630;-45
2021/01/22 11:18:05;;;;;;;1.23;0.85;;;17.90;62.10;;;;;;5124982;27;27389;-47
2021/01/22 11:20:50;;;;;;;1.63;0.75;;;18.10;61.70;;;;;;5124459;27;27442;-50
2021/01/22 11:23:35;;;;;;;2.58;0.70;;;18.30;60.60;;;;;;5125082;27;27327;-46
2021/01/22 11:26:19;;;;;;;0.70;0.70;;;18.70;60.00;;;;;;5124710;27;27408;-46
2021/01/22 11:29:04;;;;;;;3.03;0.80;;;18.80;57.90;;;;;;5124292;27;27471;-48
2021/01/22 11:31:48;;;;;;;1.88;0.63;;;18.70;56.70;;;;;;5120581;27;27395;-47
2021/01/22 11:34:33;;;;;;;2.90;1.25;;;18.60;57.40;;;;;;5121594;27;27469;-48
2021/01/22 11:37:18;;;;;;;2.45;1.35;;;18.40;57.60;;;;;;5124905;27;27455;-48
2021/01/22 11:40:04;;;;;;;1.48;0.88;;;18.20;58.20;;;;;;5124020;27;27410;-44
2021/01/22 11:42:48;;;;;;;2.08;1.25;;;17.90;57.70;;;;;;5128638;27;27303;-48
2021/01/22 11:45:33;;;;;;;1.80;1.23;;;17.60;58.70;;;;;;5128428;27;27437;-44
2021/01/22 11:48:17;;;;;;;2.28;1.02;;;17.30;59.80;;;;;;5128212;27;27503;-48
2021/01/22 11:51:02;;;;;;;1.33;1.00;;;17.10;60.20;;;;;;5128465;27;27436;-49
2021/01/22 11:53:46;;;;;;;1.65;0.98;;;17.00;61.20;;;;;;5127796;27;27334;-50
2021/01/22 11:56:31;;;;;;;1.42;0.90;;;16.90;62.00;;;;;;5127909;27;27979;-44
2021/01/22 11:59:19;;;;;;;4.07;0.98;;;16.90;61.60;;;;;;5124211;27;27402;-46
2021/01/22 12:02:04;;;;;;;1.15;1.00;;;17.00;62.00;;;;;;5128341;27;27324;-46
2021/01/22 12:04:49;;;;;;;1.73;1.30;;;17.20;61.30;;;;;;5127907;27;27486;-47
2021/01/22 12:07:33;;;;;;;2.20;1.10;;;17.30;60.80;;;;;;5127322;27;27446;-50
2021/01/22 12:10:18;;;;;;;2.38;0.90;;;17.40;61.20;;;;;;5127791;27;27474;-51
2021/01/22 12:13:02;;;;;;;1.30;1.00;;;17.50;61.10;;;;;;5127658;27;27433;-48
2021/01/22 12:15:47;;;;;;;1.60;1.02;;;17.50;60.40;;;;;;5127945;27;27390;-46
2021/01/22 12:18:31;;;;;;;2.20;1.10;;;17.50;59.10;;;;;;5127724;27;27430;-45
2021/01/22 12:21:16;;;;;;;1.20;0.90;;;17.40;59.80;;;;;;5127418;27;27436;-47
2021/01/22 12:24:01;;;;;;;1.65;0.80;;;17.30;60.20;;;;;;5127474;27;27503;-48
2021/01/22 12:26:46;;;;;;;1.35;1.00;;;17.20;60.30;;;;;;5127482;27;27410;-46
2021/01/22 12:29:31;;;;;;;1.40;1.25;;;17.10;60.70;;;;;;5127652;27;27992;-45
2021/01/22 12:32:16;;;;;;;3.47;2.00;;;17.00;60.30;;;;;;5127414;27;27434;-45
2021/01/22 12:35:00;;;;;;;5.30;1.80;;;16.80;61.20;;;;;;5127740;27;27426;-47
2021/01/22 12:37:45;;;;;;;3.38;1.30;;;16.50;62.10;;;;;;5127458;27;27435;-46
2021/01/22 12:40:29;;;;;;;2.80;1.63;;;16.10;62.90;;;;;;5127670;27;27449;-46
2021/01/22 12:43:13;;;;;;;3.22;1.38;;;15.80;64.00;;;;;;5127657;27;27405;-45
2021/01/22 12:45:58;;;;;;;2.65;1.40;;;15.60;64.80;;;;;;5127800;27;27348;-46
2021/01/22 12:48:42;;;;;;;1.23;1.13;;;15.30;65.50;;;;;;5127447;27;27337;-46
2021/01/22 12:51:27;;;;;;;2.17;1.42;;;15.10;66.20;;;;;;5126718;27;27373;-46
2021/01/22 12:54:11;;;;;;;1.88;1.20;;;14.90;67.40;;;;;;5124318;27;27351;-46
2021/01/22 12:56:56;;;;;;;1.77;1.33;;;14.70;67.90;;;;;;5127669;27;27370;-45
2021/01/22 12:59:41;;;;;;;2.10;1.27;;;14.50;68.70;;;;;;5127625;27;27404;-46
2021/01/22 13:02:25;;;;;;;2.83;1.70;;;14.30;69.50;;;;;;5126919;27;27387;-45
2021/01/22 13:05:14;;;;;;;3.00;1.25;;;14.20;69.90;;;;;;5126918;27;27432;-46
2021/01/22 13:07:58;;;;;;;2.83;1.60;;;14.20;70.40;;;;;;5126387;27;27398;-46
2021/01/22 13:10:43;;;;;;;3.42;1.52;;;14.10;70.40;;;;;;5126860;27;27355;-46
2021/01/22 13:13:27;;;;;;;2.38;1.27;;;14.10;70.70;;;;;;5126376;27;27338;-45
2021/01/22 13:16:12;;;;;;;2.20;1.30;;;14.00;70.80;;;;;;5126903;27;27442;-45
2021/01/22 13:18:56;;;;;;;1.52;1.30;;;14.00;71.00;;;;;;5126372;27;27397;-46
2021/01/22 13:21:41;;;;;;;2.28;1.35;;;14.00;71.20;;;;;;5126840;27;27399;-45
2021/01/22 13:24:25;;;;;;;2.05;1.40;;;14.00;71.40;;;;;;5126810;27;27316;-46
2021/01/22 13:27:10;;;;;;;3.33;1.50;;;14.00;71.20;;;;;;5125890;27;27414;-45
2021/01/22 13:29:55;;;;;;;1.80;1.15;;;14.00;70.80;;;;;;5126913;27;27361;-46
2021/01/22 13:32:39;;;;;;;2.28;1.40;;;14.10;70.40;;;;;;5126648;27;27404;-46
2021/01/22 13:35:24;;;;;;;2.35;1.35;;;14.20;69.60;;;;;;5126520;27;27421;-45
2021/01/22 13:38:08;;;;;;;2.08;1.15;;;14.30;69.10;;;;;;5126767;27;27461;-46
2021/01/22 13:40:53;;;;;;;3.47;1.50;;;14.50;68.90;;;;;;5126742;27;27440;-45
2021/01/22 13:43:38;;;;;;;3.03;1.30;;;14.50;68.50;;;;;;5122279;27;27494;-46
2021/01/22 13:46:22;;;;;;;2.38;1.33;;;14.40;68.20;;;;;;5125991;27;27977;-45
2021/01/22 13:49:07;;;;;;;4.07;1.27;;;14.30;68.40;;;;;;5126555;27;27493;-45
2021/01/22 13:51:51;;;;;;;2.97;1.33;;;14.20;68.20;;;;;;5126230;27;27468;-45
2021/01/22 13:54:35;;;;;;;4.80;1.17;;;14.10;68.40;;;;;;5126533;27;27398;-46
2021/01/22 13:57:20;;;;;;;2.28;1.17;;;13.90;69.00;;;;;;5126071;27;27476;-46
2021/01/22 14:00:05;;;;;;;3.58;1.33;;;13.80;68.90;;;;;;5125620;27;27499;-43
2021/01/22 14:02:50;;;;;;;2.83;1.10;;;13.70;69.30;;;;;;5121490;27;27457;-45
2021/01/22 14:05:34;;;;;;;1.75;1.08;;;13.70;69.20;;;;;;5126218;27;27510;-46
2021/01/22 14:08:19;;;;;;;2.08;1.45;;;13.70;69.60;;;;;;5125268;27;27390;-46
2021/01/22 14:11:03;;;;;;;2.08;1.20;;;13.60;70.20;;;;;;5125319;27;27379;-46
2021/01/22 14:13:48;;;;;;;3.50;1.17;;;13.50;70.70;;;;;;5125355;27;27381;-48
2021/01/22 14:16:32;;;;;;;2.53;1.13;;;13.40;71.30;;;;;;5125765;27;27323;-43
2021/01/22 14:19:17;;;;;;;3.33;1.52;;;13.20;71.80;;;;;;5125257;27;28090;-48
2021/01/22 14:22:01;;;;;;;2.67;1.30;;;13.10;72.50;;;;;;5124838;27;27336;-51
2021/01/22 14:24:46;;;;;;;3.35;1.45;;;12.90;73.00;;;;;;5125709;27;27333;-48
2021/01/22 14:27:31;;;;;;;2.40;1.27;;;12.70;73.70;;;;;;5125667;27;27312;-47
2021/01/22 14:30:16;;;;;;;4.35;1.50;;;12.60;74.30;;;;;;5125501;27;27390;-50